createdAt,value
2022-08-31T00:00:21.139Z,26.54
2022-08-31T00:03:10.792Z,26.56
2022-08-31T00:05:40.678Z,26.52
2022-08-31T00:08:14.536Z,26.29
2022-08-31T00:10:47.931Z,26.03
2022-08-31T00:13:20.607Z,26.00
2022-08-31T00:15:54.205Z,25.81
2022-08-31T00:18:25.155Z,25.71
2022-08-31T00:20:53.011Z,25.42
2022-08-31T00:23:31.676Z,25.60
2022-08-31T00:26:06.294Z,25.60
2022-08-31T00:28:36.145Z,25.67
2022-08-31T00:31:17.145Z,25.88
2022-08-31T00:34:06.585Z,26.10
2022-08-31T00:36:37.313Z,25.99
2022-08-31T00:39:13.499Z,26.02
2022-08-31T00:41:44.139Z,25.37
2022-08-31T00:44:16.365Z,25.34
2022-08-31T00:46:49.591Z,25.16
2022-08-31T00:49:25.569Z,25.04
2022-08-31T00:51:59.592Z,24.92
2022-08-31T00:54:36.038Z,24.90
2022-08-31T00:57:14.361Z,24.96
2022-08-31T00:59:48.141Z,24.88
2022-08-31T01:02:20.106Z,24.80
2022-08-31T01:04:51.357Z,24.75
2022-08-31T01:07:25.261Z,24.74
2022-08-31T01:09:56.253Z,24.32
2022-08-31T01:12:28.938Z,24.54
2022-08-31T01:15:00.974Z,24.49
2022-08-31T01:17:36.671Z,24.25
2022-08-31T01:20:12.530Z,24.22
2022-08-31T01:22:52.505Z,24.39
2022-08-31T01:25:33.427Z,24.13
2022-08-31T01:28:07.380Z,24.27
2022-08-31T01:31:06.817Z,24.13
2022-08-31T01:33:41.588Z,23.96
2022-08-31T01:36:13.156Z,23.97
2022-08-31T01:38:53.096Z,24.07
2022-08-31T01:41:22.516Z,23.95
2022-08-31T01:43:58.453Z,23.78
2022-08-31T01:46:31.923Z,23.95
2022-08-31T01:49:08.032Z,23.82
2022-08-31T01:51:44.630Z,24.03
2022-08-31T01:54:24.026Z,23.89
2022-08-31T01:56:54.339Z,24.08
2022-08-31T01:59:46.786Z,24.20
2022-08-31T02:02:37.994Z,24.03
2022-08-31T02:05:06.559Z,23.67
2022-08-31T02:07:43.794Z,23.95
2022-08-31T02:10:16.668Z,23.69
2022-08-31T02:12:49.044Z,23.82
2022-08-31T02:15:19.362Z,24.02
2022-08-31T02:17:58.018Z,24.35
2022-08-31T02:20:31.584Z,24.00
2022-08-31T02:23:07.092Z,23.81
2022-08-31T02:25:37.384Z,23.86
2022-08-31T02:28:07.490Z,23.94
2022-08-31T02:30:38.811Z,23.99
2022-08-31T02:33:15.296Z,23.97
2022-08-31T02:35:45.896Z,24.17
2022-08-31T02:38:21.404Z,24.31
2022-08-31T02:40:55.194Z,24.06
2022-08-31T02:43:30.723Z,24.30
2022-08-31T02:46:00.905Z,24.09
2022-08-31T02:48:37.934Z,23.86
2022-08-31T02:51:11.467Z,24.25
2022-08-31T02:53:46.750Z,24.25
2022-08-31T02:56:23.070Z,24.49
2022-08-31T02:58:59.204Z,24.79
2022-08-31T03:01:29.737Z,24.83
2022-08-31T03:04:04.420Z,24.84
2022-08-31T03:06:37.599Z,24.93
2022-08-31T03:09:11.358Z,24.73
2022-08-31T03:12:18.372Z,24.61
2022-08-31T03:14:54.987Z,23.79
2022-08-31T03:17:29.224Z,24.05
2022-08-31T03:20:02.142Z,23.96
2022-08-31T03:22:37.098Z,23.87
2022-08-31T03:25:14.732Z,24.19
2022-08-31T03:27:48.273Z,24.28
2022-08-31T03:30:19.628Z,24.40
2022-08-31T03:33:05.827Z,24.48
2022-08-31T03:35:43.793Z,24.72
2022-08-31T03:38:20.565Z,24.02
2022-08-31T03:40:59.585Z,24.49
2022-08-31T03:43:28.041Z,24.84
2022-08-31T03:46:01.919Z,25.02
2022-08-31T03:48:37.346Z,24.52
2022-08-31T03:51:06.529Z,24.90
2022-08-31T03:53:45.698Z,25.00
2022-08-31T03:56:23.384Z,25.08
2022-08-31T03:58:54.794Z,24.96
2022-08-31T04:02:00.028Z,24.93
2022-08-31T04:04:55.029Z,24.08
2022-08-31T04:07:50.853Z,24.65
2022-08-31T04:10:44.432Z,24.47
2022-08-31T04:13:38.886Z,24.62
2022-08-31T04:16:24.635Z,24.82
2022-08-31T04:19:16.749Z,25.06
2022-08-31T04:22:07.048Z,25.07
2022-08-31T04:24:42.979Z,25.12
2022-08-31T04:27:14.255Z,25.05
2022-08-31T04:29:44.452Z,24.41
2022-08-31T04:32:17.536Z,24.24
2022-08-31T04:35:17.885Z,24.41
2022-08-31T04:37:48.119Z,24.25
2022-08-31T04:40:25.600Z,24.22
2022-08-31T04:42:58.708Z,24.32
2022-08-31T04:45:32.246Z,24.32
2022-08-31T04:48:05.081Z,23.99
2022-08-31T04:50:42.309Z,24.12
2022-08-31T04:53:17.403Z,24.30
2022-08-31T04:55:49.685Z,24.12
2022-08-31T04:58:23.733Z,24.47
2022-08-31T05:01:00.736Z,24.60
2022-08-31T05:03:51.479Z,24.40
2022-08-31T05:06:25.275Z,24.29
2022-08-31T05:08:57.779Z,24.53
2022-08-31T05:11:29.606Z,24.53
2022-08-31T05:14:02.525Z,24.61
2022-08-31T05:16:44.333Z,24.76
2022-08-31T05:19:14.648Z,24.69
2022-08-31T05:21:45.123Z,24.42
2022-08-31T05:24:15.167Z,24.39
2022-08-31T05:26:50.992Z,24.66
2022-08-31T05:29:23.728Z,24.22
2022-08-31T05:32:10.469Z,24.56
2022-08-31T05:34:43.645Z,24.50
2022-08-31T05:37:13.837Z,24.50
2022-08-31T05:39:42.120Z,24.44
2022-08-31T05:42:15.425Z,24.41
2022-08-31T05:44:49.427Z,24.44
2022-08-31T05:47:17.878Z,24.56
2022-08-31T05:49:49.681Z,24.70
2022-08-31T05:52:24.837Z,24.69
2022-08-31T05:54:55.510Z,24.83
2022-08-31T05:57:27.028Z,24.80
2022-08-31T06:00:00.539Z,24.61
2022-08-31T06:02:33.673Z,24.46
2022-08-31T06:05:01.402Z,24.58
2022-08-31T06:07:37.125Z,24.62
2022-08-31T06:10:15.062Z,24.77
2022-08-31T06:12:44.638Z,24.83
2022-08-31T06:15:12.082Z,24.81
2022-08-31T06:17:40.587Z,24.67
2022-08-31T06:20:18.314Z,24.68
2022-08-31T06:22:48.036Z,24.59
2022-08-31T06:25:29.099Z,24.83
2022-08-31T06:28:00.020Z,25.02
2022-08-31T06:30:27.827Z,24.52
2022-08-31T06:32:58.624Z,24.46
2022-08-31T06:35:41.526Z,24.68
2022-08-31T06:38:27.859Z,24.65
2022-08-31T06:41:36.619Z,24.90
2022-08-31T06:44:38.944Z,24.97
2022-08-31T06:47:23.930Z,24.66
2022-08-31T06:50:00.310Z,24.62
2022-08-31T06:52:28.554Z,24.91
2022-08-31T06:55:16.560Z,25.08
2022-08-31T06:58:11.897Z,25.22
2022-08-31T07:01:07.377Z,24.63
2022-08-31T07:04:02.513Z,24.55
2022-08-31T07:06:33.942Z,24.57
2022-08-31T07:09:07.730Z,24.62
2022-08-31T07:11:44.294Z,24.80
2022-08-31T07:14:17.939Z,25.02
2022-08-31T07:16:45.820Z,25.17
2022-08-31T07:19:14.134Z,25.22
2022-08-31T07:21:45.799Z,25.49
2022-08-31T07:24:14.140Z,25.72
2022-08-31T07:26:44.984Z,26.04
2022-08-31T07:29:19.844Z,26.01
2022-08-31T07:31:48.630Z,25.84
2022-08-31T07:34:34.445Z,26.03
2022-08-31T07:37:41.915Z,25.57
2022-08-31T07:40:30.982Z,25.58
2022-08-31T07:43:05.101Z,25.32
2022-08-31T07:45:39.346Z,25.16
2022-08-31T07:48:12.612Z,25.27
2022-08-31T07:51:05.290Z,25.24
2022-08-31T07:53:58.247Z,25.75
2022-08-31T07:56:37.697Z,25.74
2022-08-31T07:59:20.722Z,25.45
2022-08-31T08:01:51.509Z,25.26
2022-08-31T08:04:27.683Z,25.40
2022-08-31T08:07:18.287Z,25.29
2022-08-31T08:13:59.722Z,25.09
2022-08-31T08:16:42.386Z,25.11
2022-08-31T08:19:42.698Z,24.68
2022-08-31T08:22:51.860Z,24.81
2022-08-31T08:25:46.318Z,25.36
2022-08-31T08:28:40.475Z,25.51
2022-08-31T08:31:14.923Z,25.51
2022-08-31T08:33:45.218Z,25.73
2022-08-31T08:36:13.544Z,25.31
2022-08-31T08:38:47.526Z,25.27
2022-08-31T08:41:25.274Z,25.24
2022-08-31T08:43:58.717Z,25.26
2022-08-31T08:47:37.851Z,25.39
2022-08-31T08:49:48.817Z,25.82
2022-08-31T08:52:22.982Z,25.79
2022-08-31T08:54:51.437Z,26.01
2022-08-31T08:57:26.487Z,25.91
2022-08-31T09:00:00.279Z,25.89
2022-08-31T09:02:35.202Z,26.03
2022-08-31T09:05:07.952Z,26.59
2022-08-31T09:08:05.285Z,26.10
2022-08-31T09:10:34.875Z,25.51
2022-08-31T09:13:02.898Z,26.39
2022-08-31T09:15:38.797Z,26.62
2022-08-31T09:18:24.916Z,26.66
2022-08-31T09:21:08.286Z,26.89
2022-08-31T09:23:37.906Z,27.09
2022-08-31T09:26:08.342Z,26.95
2022-08-31T09:29:04.027Z,26.38
2022-08-31T09:31:37.678Z,26.13
2022-08-31T09:34:09.183Z,26.33
2022-08-31T09:36:40.959Z,26.53
2022-08-31T09:39:37.371Z,26.81
2022-08-31T09:42:14.165Z,26.55
2022-08-31T09:44:41.973Z,26.37
2022-08-31T09:47:28.144Z,26.16
2022-08-31T09:49:58.126Z,25.88
2022-08-31T09:55:40.319Z,26.39
2022-08-31T09:58:11.479Z,26.52
2022-08-31T10:00:40.936Z,26.73
2022-08-31T10:03:22.289Z,26.60
2022-08-31T10:05:54.823Z,26.11
2022-08-31T10:08:32.985Z,26.30
2022-08-31T10:11:06.515Z,26.64
2022-08-31T10:13:36.499Z,26.28
2022-08-31T10:16:23.104Z,26.34
2022-08-31T10:19:01.715Z,26.24
2022-08-31T10:21:40.745Z,26.48
2022-08-31T10:24:20.917Z,26.46
2022-08-31T10:26:53.482Z,26.77
2022-08-31T10:29:32.003Z,26.69
2022-08-31T10:32:01.900Z,27.29
2022-08-31T10:34:52.074Z,27.61
2022-08-31T10:37:25.092Z,28.16
2022-08-31T10:40:18.251Z,28.10
2022-08-31T10:43:09.491Z,28.04
2022-08-31T10:45:39.723Z,28.22
2022-08-31T10:48:15.725Z,28.59
2022-08-31T10:50:49.058Z,27.93
2022-08-31T10:53:31.922Z,28.14
2022-08-31T10:56:02.510Z,27.57
2022-08-31T10:58:50.932Z,27.45
2022-08-31T11:01:23.864Z,27.50
2022-08-31T11:04:04.693Z,27.43
2022-08-31T11:06:47.309Z,27.65
2022-08-31T11:09:24.378Z,28.00
2022-08-31T11:12:05.514Z,27.98
2022-08-31T11:14:45.330Z,27.25
2022-08-31T11:17:18.947Z,27.40
2022-08-31T11:24:39.180Z,27.60
2022-08-31T11:27:23.766Z,26.99
2022-08-31T11:29:58.407Z,27.56
2022-08-31T11:36:55.574Z,27.33
2022-08-31T11:39:45.677Z,27.27
2022-08-31T11:42:19.015Z,28.30
2022-08-31T11:45:02.345Z,28.69
2022-08-31T11:47:37.312Z,29.37
2022-08-31T11:50:11.975Z,29.79
2022-08-31T11:52:43.669Z,28.87
2022-08-31T11:55:17.610Z,28.48
2022-08-31T11:58:11.696Z,28.05
2022-08-31T12:00:44.061Z,28.07
2022-08-31T12:03:32.318Z,27.56
2022-08-31T12:06:00.195Z,27.73
2022-08-31T12:08:32.535Z,27.95
2022-08-31T12:10:59.843Z,29.00
2022-08-31T12:13:31.087Z,29.23
2022-08-31T12:16:04.301Z,29.08
2022-08-31T12:18:41.348Z,28.77
2022-08-31T12:24:24.907Z,29.14
2022-08-31T12:27:05.258Z,30.15
2022-08-31T12:30:01.129Z,30.92
2022-08-31T12:32:30.051Z,33.27
2022-08-31T12:35:13.548Z,34.14
2022-08-31T12:37:41.441Z,35.26
2022-08-31T12:40:09.317Z,35.80
2022-08-31T12:52:10.884Z,34.56
2022-08-31T13:03:15.394Z,33.20
2022-08-31T13:05:46.925Z,33.83
2022-08-31T13:09:05.040Z,33.04
2022-08-31T13:16:46.128Z,35.72
2022-08-31T13:19:42.074Z,37.07
2022-08-31T13:22:12.201Z,34.91
2022-08-31T13:24:51.359Z,35.72
2022-08-31T13:27:22.784Z,34.87
2022-08-31T13:30:19.184Z,32.38
2022-08-31T13:33:53.977Z,32.03
2022-08-31T13:39:28.917Z,33.95
2022-08-31T13:41:59.488Z,33.02
2022-08-31T13:44:31.807Z,31.63
2022-08-31T13:47:01.451Z,30.90
2022-08-31T13:49:35.772Z,31.35
2022-08-31T13:52:03.988Z,31.48
2022-08-31T13:54:33.995Z,31.34
2022-08-31T13:57:20.044Z,29.84
2022-08-31T13:59:47.758Z,28.98
2022-08-31T14:03:08.245Z,28.80
2022-08-31T14:05:40.454Z,29.30
2022-08-31T14:13:20.197Z,28.91
2022-08-31T14:15:50.622Z,28.54
2022-08-31T14:18:45.282Z,28.28
2022-08-31T14:21:25.379Z,28.49
2022-08-31T14:23:54.834Z,28.29
2022-08-31T14:26:28.202Z,28.77
2022-08-31T14:29:21.246Z,28.38
2022-08-31T14:31:52.223Z,28.18
2022-08-31T14:34:49.472Z,28.25
2022-08-31T14:37:22.577Z,27.96
2022-08-31T14:40:15.310Z,28.35
2022-08-31T14:43:33.970Z,28.31
2022-08-31T14:46:03.522Z,28.27
2022-08-31T14:49:24.127Z,28.37
2022-08-31T14:51:51.546Z,28.31
2022-08-31T14:54:19.470Z,28.32
2022-08-31T14:56:50.444Z,27.99
2022-08-31T14:59:19.464Z,28.19
2022-08-31T15:01:51.006Z,28.18
2022-08-31T15:04:22.093Z,28.20
2022-08-31T15:06:50.596Z,27.88
2022-08-31T15:10:07.989Z,27.77
2022-08-31T15:12:35.880Z,27.71
2022-08-31T15:15:08.217Z,27.92
2022-08-31T15:17:39.697Z,27.85
2022-08-31T15:20:08.561Z,27.96
2022-08-31T15:23:04.413Z,27.97
2022-08-31T15:25:31.925Z,27.97
2022-08-31T15:28:49.048Z,27.98
2022-08-31T15:31:23.827Z,27.83
2022-08-31T15:34:30.891Z,27.92
2022-08-31T15:41:04.966Z,27.70
2022-08-31T15:43:36.298Z,27.51
2022-08-31T15:46:03.865Z,27.15
2022-08-31T15:48:49.737Z,27.26
2022-08-31T15:51:23.495Z,27.33
2022-08-31T15:54:06.495Z,27.65
2022-08-31T15:57:07.352Z,27.57
2022-08-31T16:03:17.737Z,27.94
2022-08-31T16:05:46.120Z,27.71
2022-08-31T16:12:21.287Z,27.53
2022-08-31T16:14:52.490Z,27.36
2022-08-31T16:17:20.229Z,27.45
2022-08-31T16:20:18.373Z,27.71
2022-08-31T16:22:48.417Z,27.77
2022-08-31T16:25:48.319Z,27.77
2022-08-31T16:28:17.819Z,27.50
2022-08-31T16:30:45.497Z,27.47
2022-08-31T16:33:13.083Z,27.52
2022-08-31T16:35:47.965Z,27.42
2022-08-31T16:38:17.867Z,27.52
2022-08-31T16:40:47.480Z,27.50
2022-08-31T16:43:17.245Z,27.49
2022-08-31T16:46:30.394Z,27.53
2022-08-31T16:49:36.940Z,27.33
2022-08-31T16:52:11.381Z,27.12
2022-08-31T16:54:45.135Z,26.73
2022-08-31T16:57:23.708Z,26.48
2022-08-31T16:59:55.309Z,26.12
2022-08-31T17:02:23.481Z,26.03
2022-08-31T17:04:53.120Z,25.81
2022-08-31T17:07:24.105Z,25.67
2022-08-31T17:09:55.948Z,25.60
2022-08-31T17:12:26.302Z,25.47
2022-08-31T17:14:54.469Z,25.73
2022-08-31T17:21:50.899Z,26.06
2022-08-31T17:24:21.798Z,25.74
2022-08-31T17:30:45.340Z,25.71
2022-08-31T17:33:15.279Z,25.75
2022-08-31T17:35:45.966Z,25.42
2022-08-31T17:41:50.493Z,25.51
2022-08-31T17:44:48.143Z,25.57
2022-08-31T17:51:35.725Z,25.38
2022-08-31T17:57:05.609Z,25.30
2022-08-31T17:59:39.287Z,25.37
2022-08-31T18:02:08.548Z,25.52
2022-08-31T18:04:36.778Z,25.48
2022-08-31T18:07:06.858Z,25.33
2022-08-31T18:09:39.160Z,25.23
2022-08-31T18:12:09.158Z,25.44
2022-08-31T18:23:23.008Z,25.55
2022-08-31T18:25:50.925Z,25.48
2022-08-31T18:29:08.586Z,25.52
2022-08-31T18:31:37.639Z,25.42
2022-08-31T18:34:57.075Z,25.20
2022-08-31T18:37:25.988Z,25.28
2022-08-31T18:40:13.327Z,25.19
2022-08-31T18:43:33.861Z,25.10
2022-08-31T18:46:04.089Z,25.11
2022-08-31T18:48:37.561Z,24.92
2022-08-31T18:51:08.397Z,25.04
2022-08-31T18:53:36.259Z,24.99
2022-08-31T18:56:10.674Z,24.98
2022-08-31T19:03:52.177Z,25.11
2022-08-31T19:06:21.622Z,24.94
2022-08-31T19:09:42.574Z,24.97
2022-08-31T19:12:10.949Z,25.20
2022-08-31T19:14:41.012Z,25.08
2022-08-31T19:17:09.292Z,25.03
2022-08-31T19:20:05.893Z,25.11
2022-08-31T19:22:35.111Z,25.57
2022-08-31T19:25:03.256Z,25.76
2022-08-31T19:27:30.705Z,25.78
2022-08-31T19:29:59.303Z,25.79
2022-08-31T19:36:14.690Z,26.24
2022-08-31T19:39:13.049Z,26.28
2022-08-31T19:41:49.235Z,26.37
2022-08-31T19:44:55.924Z,26.51
2022-08-31T19:48:25.720Z,26.16
2022-08-31T19:50:53.522Z,26.27
2022-08-31T19:53:22.869Z,26.09
2022-08-31T19:55:54.233Z,26.22
2022-08-31T19:59:14.474Z,26.28
2022-08-31T20:01:42.220Z,26.49
2022-08-31T20:04:14.388Z,26.39
2022-08-31T20:06:45.512Z,26.18
2022-08-31T20:09:14.198Z,26.19
2022-08-31T20:11:42.305Z,26.43
2022-08-31T20:14:10.820Z,26.48
2022-08-31T20:16:43.340Z,26.62
2022-08-31T20:19:13.475Z,26.46
2022-08-31T20:21:42.138Z,26.47
2022-08-31T20:24:13.811Z,26.61
2022-08-31T20:26:47.496Z,26.50
2022-08-31T20:29:20.207Z,26.30
2022-08-31T20:31:49.305Z,26.10
2022-08-31T20:34:18.895Z,26.15
2022-08-31T20:36:51.022Z,26.28
2022-08-31T20:39:19.782Z,26.44
2022-08-31T20:41:47.931Z,26.24
2022-08-31T20:44:20.869Z,26.32
2022-08-31T20:47:11.493Z,26.30
2022-08-31T20:49:44.279Z,26.22
2022-08-31T20:52:12.954Z,26.19
2022-08-31T20:54:43.180Z,26.13
2022-08-31T20:57:11.486Z,26.28
2022-08-31T20:59:41.653Z,26.13
2022-08-31T21:02:09.570Z,26.28
2022-08-31T21:04:38.791Z,26.43
2022-08-31T21:07:11.915Z,26.33
2022-08-31T21:09:41.081Z,26.32
2022-08-31T21:12:09.226Z,26.35
2022-08-31T21:14:37.080Z,26.13
2022-08-31T21:17:07.877Z,25.71
2022-08-31T21:19:38.512Z,25.71
2022-08-31T21:22:09.732Z,26.05
2022-08-31T21:24:38.301Z,26.14
2022-08-31T21:27:07.001Z,26.24
2022-08-31T21:29:36.552Z,26.12
2022-08-31T21:32:09.683Z,26.19
2022-08-31T21:34:37.426Z,26.15
2022-08-31T21:37:08.215Z,26.29
2022-08-31T21:39:36.029Z,26.31
2022-08-31T21:42:04.035Z,26.31
2022-08-31T21:44:33.412Z,26.26
2022-08-31T21:47:00.856Z,25.89
2022-08-31T21:49:29.239Z,25.31
2022-08-31T21:51:57.888Z,25.61
2022-08-31T21:54:27.441Z,25.38
2022-08-31T21:56:55.888Z,25.59
2022-08-31T21:59:50.246Z,25.80
2022-08-31T22:02:17.720Z,25.83
2022-08-31T22:04:47.508Z,25.95
2022-08-31T22:07:15.414Z,25.87
2022-08-31T22:09:44.967Z,25.77
2022-08-31T22:12:15.951Z,25.67
2022-08-31T22:14:44.855Z,25.87
2022-08-31T22:17:13.087Z,25.95
2022-08-31T22:19:44.176Z,25.57
2022-08-31T22:22:13.156Z,25.72
2022-08-31T22:24:43.386Z,25.77
2022-08-31T22:27:12.187Z,25.69
2022-08-31T22:29:42.166Z,25.71
2022-08-31T22:32:13.822Z,25.74
2022-08-31T22:34:43.903Z,25.73
2022-08-31T22:37:13.956Z,25.92
2022-08-31T22:39:42.627Z,25.72
2022-08-31T22:42:13.246Z,25.40
2022-08-31T22:44:42.651Z,25.63
2022-08-31T22:47:09.980Z,25.60
2022-08-31T22:49:37.496Z,25.59
2022-08-31T22:52:07.580Z,25.65
2022-08-31T22:54:37.100Z,25.70
2022-08-31T22:57:09.378Z,25.62
2022-08-31T23:03:20.709Z,25.52
2022-08-31T23:10:01.364Z,25.32
2022-08-31T23:12:31.223Z,25.21
2022-08-31T23:15:48.971Z,25.29
2022-08-31T23:18:20.457Z,25.63
2022-08-31T23:20:49.672Z,25.72
2022-08-31T23:23:17.230Z,25.70
2022-08-31T23:25:47.326Z,25.81
2022-08-31T23:28:47.094Z,25.89
2022-08-31T23:31:14.772Z,25.96
2022-08-31T23:33:44.695Z,25.60
2022-08-31T23:36:19.095Z,25.70
2022-08-31T23:38:49.764Z,25.56
2022-08-31T23:41:18.556Z,25.71
2022-08-31T23:43:52.375Z,25.67
2022-08-31T23:46:20.662Z,25.46
2022-08-31T23:48:50.871Z,25.60
2022-08-31T23:51:19.737Z,25.69
2022-08-31T23:53:54.100Z,25.71
2022-08-31T23:56:32.674Z,25.75
2022-08-31T23:59:01.201Z,25.63
